sensor_id;sensor_type;location;lat;lon;timestamp;P1;durP1;ratioP1;P2;durP2;ratioP2
66402;SDS011;53212;52.112;5.144;2023-08-17T00:00:05;4.10;;;1.80;;
66402;SDS011;53212;52.112;5.144;2023-08-17T00:02:35;3.00;;;1.80;;
66402;SDS011;53212;52.112;5.144;2023-08-17T00:05:00;3.00;;;1.60;;
66402;SDS011;53212;52.112;5.144;2023-08-17T00:07:26;4.00;;;1.90;;
66402;SDS011;53212;52.112;5.144;2023-08-17T00:09:51;4.80;;;2.10;;
66402;SDS011;53212;52.112;5.144;2023-08-17T00:12:17;3.20;;;2.10;;
66402;SDS011;53212;52.112;5.144;2023-08-17T00:14:42;4.50;;;1.90;;
66402;SDS011;53212;52.112;5.144;2023-08-17T00:17:08;4.10;;;1.70;;
66402;SDS011;53212;52.112;5.144;2023-08-17T00:19:33;5.30;;;1.70;;
66402;SDS011;53212;52.112;5.144;2023-08-17T00:21:58;4.20;;;2.00;;
66402;SDS011;53212;52.112;5.144;2023-08-17T00:24:24;3.50;;;1.60;;
66402;SDS011;53212;52.112;5.144;2023-08-17T00:26:49;1.90;;;1.50;;
66402;SDS011;53212;52.112;5.144;2023-08-17T00:29:15;4.20;;;1.90;;
66402;SDS011;53212;52.112;5.144;2023-08-17T00:31:41;4.40;;;1.50;;
66402;SDS011;53212;52.112;5.144;2023-08-17T00:34:06;5.20;;;1.80;;
66402;SDS011;53212;52.112;5.144;2023-08-17T00:36:32;4.60;;;2.40;;
66402;SDS011;53212;52.112;5.144;2023-08-17T00:38:57;2.60;;;1.40;;
66402;SDS011;53212;52.112;5.144;2023-08-17T00:41:23;4.10;;;1.60;;
66402;SDS011;53212;52.112;5.144;2023-08-17T00:43:48;5.20;;;1.50;;
66402;SDS011;53212;52.112;5.144;2023-08-17T00:46:14;3.60;;;1.50;;
66402;SDS011;53212;52.112;5.144;2023-08-17T00:48:40;5.20;;;1.80;;
66402;SDS011;53212;52.112;5.144;2023-08-17T00:51:07;3.70;;;1.80;;
66402;SDS011;53212;52.112;5.144;2023-08-17T00:53:33;3.20;;;1.60;;
66402;SDS011;53212;52.112;5.144;2023-08-17T00:55:59;4.00;;;1.50;;
66402;SDS011;53212;52.112;5.144;2023-08-17T00:58:27;4.50;;;1.60;;
66402;SDS011;53212;52.112;5.144;2023-08-17T01:00:53;4.80;;;1.80;;
66402;SDS011;53212;52.112;5.144;2023-08-17T01:03:18;4.80;;;1.50;;
66402;SDS011;53212;52.112;5.144;2023-08-17T01:05:47;4.60;;;1.60;;
66402;SDS011;53212;52.112;5.144;2023-08-17T01:08:13;3.70;;;1.70;;
66402;SDS011;53212;52.112;5.144;2023-08-17T01:14:08;4.70;;;1.40;;
66402;SDS011;53212;52.112;5.144;2023-08-17T01:16:59;4.20;;;1.70;;
66402;SDS011;53212;52.112;5.144;2023-08-17T01:19:29;4.40;;;1.70;;
66402;SDS011;53212;52.112;5.144;2023-08-17T01:22:05;4.50;;;1.70;;
66402;SDS011;53212;52.112;5.144;2023-08-17T01:24:33;3.90;;;1.60;;
66402;SDS011;53212;52.112;5.144;2023-08-17T01:26:59;8.20;;;1.70;;
66402;SDS011;53212;52.112;5.144;2023-08-17T01:29:24;3.80;;;1.70;;
66402;SDS011;53212;52.112;5.144;2023-08-17T01:32:11;4.50;;;1.70;;
66402;SDS011;53212;52.112;5.144;2023-08-17T01:34:47;3.70;;;1.70;;
66402;SDS011;53212;52.112;5.144;2023-08-17T01:37:16;3.40;;;1.80;;
66402;SDS011;53212;52.112;5.144;2023-08-17T01:39:44;6.70;;;2.00;;
66402;SDS011;53212;52.112;5.144;2023-08-17T01:42:16;3.30;;;1.50;;
66402;SDS011;53212;52.112;5.144;2023-08-17T01:44:42;4.80;;;2.10;;
66402;SDS011;53212;52.112;5.144;2023-08-17T01:47:08;3.60;;;1.60;;
66402;SDS011;53212;52.112;5.144;2023-08-17T01:49:34;3.10;;;1.50;;
66402;SDS011;53212;52.112;5.144;2023-08-17T01:52:00;4.20;;;1.50;;
66402;SDS011;53212;52.112;5.144;2023-08-17T01:54:26;2.50;;;1.60;;
66402;SDS011;53212;52.112;5.144;2023-08-17T01:56:51;6.30;;;1.70;;
66402;SDS011;53212;52.112;5.144;2023-08-17T01:59:17;4.00;;;1.70;;
66402;SDS011;53212;52.112;5.144;2023-08-17T02:01:42;3.80;;;1.80;;
66402;SDS011;53212;52.112;5.144;2023-08-17T02:04:07;3.30;;;1.90;;
66402;SDS011;53212;52.112;5.144;2023-08-17T02:06:33;3.80;;;2.20;;
66402;SDS011;53212;52.112;5.144;2023-08-17T02:08:59;3.80;;;2.00;;
66402;SDS011;53212;52.112;5.144;2023-08-17T02:11:24;3.50;;;1.90;;
66402;SDS011;53212;52.112;5.144;2023-08-17T02:13:50;4.10;;;1.80;;
66402;SDS011;53212;52.112;5.144;2023-08-17T02:16:15;3.50;;;1.80;;
66402;SDS011;53212;52.112;5.144;2023-08-17T02:18:41;4.90;;;1.80;;
66402;SDS011;53212;52.112;5.144;2023-08-17T02:21:06;5.30;;;1.70;;
66402;SDS011;53212;52.112;5.144;2023-08-17T02:23:32;5.20;;;2.30;;
66402;SDS011;53212;52.112;5.144;2023-08-17T02:25:57;7.20;;;2.10;;
66402;SDS011;53212;52.112;5.144;2023-08-17T02:28:22;5.40;;;2.00;;
66402;SDS011;53212;52.112;5.144;2023-08-17T02:30:48;5.20;;;1.90;;
66402;SDS011;53212;52.112;5.144;2023-08-17T02:33:14;5.50;;;2.20;;
66402;SDS011;53212;52.112;5.144;2023-08-17T02:35:39;3.20;;;1.80;;
66402;SDS011;53212;52.112;5.144;2023-08-17T02:38:05;5.00;;;2.00;;
66402;SDS011;53212;52.112;5.144;2023-08-17T02:40:30;4.70;;;2.00;;
66402;SDS011;53212;52.112;5.144;2023-08-17T02:42:56;6.30;;;2.30;;
66402;SDS011;53212;52.112;5.144;2023-08-17T02:45:21;7.40;;;2.20;;
66402;SDS011;53212;52.112;5.144;2023-08-17T02:47:47;4.20;;;1.80;;
66402;SDS011;53212;52.112;5.144;2023-08-17T02:50:13;3.70;;;2.00;;
66402;SDS011;53212;52.112;5.144;2023-08-17T02:52:38;3.50;;;1.80;;
66402;SDS011;53212;52.112;5.144;2023-08-17T02:55:04;3.80;;;2.10;;
66402;SDS011;53212;52.112;5.144;2023-08-17T02:57:30;4.50;;;2.20;;
66402;SDS011;53212;52.112;5.144;2023-08-17T02:59:56;8.90;;;2.10;;
66402;SDS011;53212;52.112;5.144;2023-08-17T03:02:22;3.30;;;1.90;;
66402;SDS011;53212;52.112;5.144;2023-08-17T03:04:47;3.30;;;1.60;;
66402;SDS011;53212;52.112;5.144;2023-08-17T03:07:12;3.60;;;1.80;;
66402;SDS011;53212;52.112;5.144;2023-08-17T03:09:38;3.00;;;1.60;;
66402;SDS011;53212;52.112;5.144;2023-08-17T03:12:03;4.60;;;2.10;;
66402;SDS011;53212;52.112;5.144;2023-08-17T03:14:29;9.30;;;2.30;;
66402;SDS011;53212;52.112;5.144;2023-08-17T03:16:55;4.40;;;1.80;;
66402;SDS011;53212;52.112;5.144;2023-08-17T03:19:20;5.50;;;2.10;;
66402;SDS011;53212;52.112;5.144;2023-08-17T03:21:46;3.80;;;1.80;;
66402;SDS011;53212;52.112;5.144;2023-08-17T03:24:11;4.50;;;1.90;;
66402;SDS011;53212;52.112;5.144;2023-08-17T03:26:36;4.60;;;1.80;;
66402;SDS011;53212;52.112;5.144;2023-08-17T03:29:02;5.00;;;1.60;;
66402;SDS011;53212;52.112;5.144;2023-08-17T03:31:27;4.70;;;2.00;;
66402;SDS011;53212;52.112;5.144;2023-08-17T03:33:53;3.60;;;1.80;;
66402;SDS011;53212;52.112;5.144;2023-08-17T03:36:20;5.90;;;2.00;;
66402;SDS011;53212;52.112;5.144;2023-08-17T03:38:45;4.90;;;2.10;;
66402;SDS011;53212;52.112;5.144;2023-08-17T03:41:11;5.00;;;2.20;;
66402;SDS011;53212;52.112;5.144;2023-08-17T03:43:36;4.70;;;1.80;;
66402;SDS011;53212;52.112;5.144;2023-08-17T03:46:03;4.40;;;1.90;;
66402;SDS011;53212;52.112;5.144;2023-08-17T03:48:29;4.30;;;2.20;;
66402;SDS011;53212;52.112;5.144;2023-08-17T03:50:55;6.60;;;2.20;;
66402;SDS011;53212;52.112;5.144;2023-08-17T03:53:21;4.00;;;2.00;;
66402;SDS011;53212;52.112;5.144;2023-08-17T03:55:50;5.00;;;2.30;;
66402;SDS011;53212;52.112;5.144;2023-08-17T03:58:17;4.90;;;1.90;;
66402;SDS011;53212;52.112;5.144;2023-08-17T04:00:54;4.00;;;1.60;;
66402;SDS011;53212;52.112;5.144;2023-08-17T04:03:20;4.80;;;1.80;;
66402;SDS011;53212;52.112;5.144;2023-08-17T04:05:45;2.70;;;2.00;;
66402;SDS011;53212;52.112;5.144;2023-08-17T04:08:11;4.90;;;1.70;;
66402;SDS011;53212;52.112;5.144;2023-08-17T04:10:36;2.50;;;1.70;;
66402;SDS011;53212;52.112;5.144;2023-08-17T04:13:02;4.90;;;1.70;;
66402;SDS011;53212;52.112;5.144;2023-08-17T04:15:28;4.80;;;2.00;;
66402;SDS011;53212;52.112;5.144;2023-08-17T04:17:54;3.90;;;1.70;;
66402;SDS011;53212;52.112;5.144;2023-08-17T04:20:19;4.90;;;2.10;;
66402;SDS011;53212;52.112;5.144;2023-08-17T04:22:45;7.50;;;1.90;;
66402;SDS011;53212;52.112;5.144;2023-08-17T04:25:10;5.30;;;1.90;;
66402;SDS011;53212;52.112;5.144;2023-08-17T04:27:36;5.30;;;1.90;;
66402;SDS011;53212;52.112;5.144;2023-08-17T04:30:01;3.50;;;1.60;;
66402;SDS011;53212;52.112;5.144;2023-08-17T04:32:27;4.20;;;1.90;;
66402;SDS011;53212;52.112;5.144;2023-08-17T04:34:52;3.20;;;1.80;;
66402;SDS011;53212;52.112;5.144;2023-08-17T04:37:18;2.50;;;1.60;;
66402;SDS011;53212;52.112;5.144;2023-08-17T04:39:43;3.50;;;1.90;;
66402;SDS011;53212;52.112;5.144;2023-08-17T04:42:09;4.80;;;1.70;;
66402;SDS011;53212;52.112;5.144;2023-08-17T04:44:35;6.10;;;2.50;;
66402;SDS011;53212;52.112;5.144;2023-08-17T04:47:01;5.00;;;1.70;;
66402;SDS011;53212;52.112;5.144;2023-08-17T04:49:27;3.50;;;2.20;;
66402;SDS011;53212;52.112;5.144;2023-08-17T04:51:53;3.70;;;2.00;;
66402;SDS011;53212;52.112;5.144;2023-08-17T04:54:18;3.40;;;1.70;;
66402;SDS011;53212;52.112;5.144;2023-08-17T04:56:44;3.70;;;1.90;;
66402;SDS011;53212;52.112;5.144;2023-08-17T04:59:10;4.50;;;1.70;;
66402;SDS011;53212;52.112;5.144;2023-08-17T05:01:35;3.20;;;1.60;;
66402;SDS011;53212;52.112;5.144;2023-08-17T05:04:02;3.40;;;1.70;;
66402;SDS011;53212;52.112;5.144;2023-08-17T05:06:29;2.40;;;1.50;;
66402;SDS011;53212;52.112;5.144;2023-08-17T05:08:55;3.10;;;1.50;;
66402;SDS011;53212;52.112;5.144;2023-08-17T05:11:21;4.60;;;1.70;;
66402;SDS011;53212;52.112;5.144;2023-08-17T05:13:46;4.70;;;1.90;;
66402;SDS011;53212;52.112;5.144;2023-08-17T05:16:12;4.30;;;1.60;;
66402;SDS011;53212;52.112;5.144;2023-08-17T05:18:37;3.80;;;1.70;;
66402;SDS011;53212;52.112;5.144;2023-08-17T05:21:03;5.40;;;1.70;;
66402;SDS011;53212;52.112;5.144;2023-08-17T05:23:28;1.50;;;1.30;;
66402;SDS011;53212;52.112;5.144;2023-08-17T05:25:54;4.40;;;1.80;;
66402;SDS011;53212;52.112;5.144;2023-08-17T05:28:20;3.10;;;1.60;;
66402;SDS011;53212;52.112;5.144;2023-08-17T05:30:46;3.10;;;1.40;;
66402;SDS011;53212;52.112;5.144;2023-08-17T05:33:11;5.80;;;2.00;;
66402;SDS011;53212;52.112;5.144;2023-08-17T05:35:37;3.90;;;1.60;;
66402;SDS011;53212;52.112;5.144;2023-08-17T05:38:02;3.70;;;1.60;;
66402;SDS011;53212;52.112;5.144;2023-08-17T05:40:32;5.20;;;1.80;;
66402;SDS011;53212;52.112;5.144;2023-08-17T05:42:57;3.70;;;1.50;;
66402;SDS011;53212;52.112;5.144;2023-08-17T05:45:23;4.80;;;1.70;;
66402;SDS011;53212;52.112;5.144;2023-08-17T05:47:48;4.10;;;2.00;;
66402;SDS011;53212;52.112;5.144;2023-08-17T05:50:14;5.20;;;1.80;;
66402;SDS011;53212;52.112;5.144;2023-08-17T05:52:40;4.30;;;1.50;;
66402;SDS011;53212;52.112;5.144;2023-08-17T05:55:06;2.90;;;1.60;;
66402;SDS011;53212;52.112;5.144;2023-08-17T05:57:32;4.20;;;1.60;;
66402;SDS011;53212;52.112;5.144;2023-08-17T05:59:57;4.50;;;1.50;;
66402;SDS011;53212;52.112;5.144;2023-08-17T06:02:23;4.80;;;1.60;;
66402;SDS011;53212;52.112;5.144;2023-08-17T06:04:48;3.70;;;1.50;;
66402;SDS011;53212;52.112;5.144;2023-08-17T06:07:14;4.50;;;1.80;;
66402;SDS011;53212;52.112;5.144;2023-08-17T06:09:39;2.60;;;1.60;;
66402;SDS011;53212;52.112;5.144;2023-08-17T06:12:05;4.30;;;1.80;;
66402;SDS011;53212;52.112;5.144;2023-08-17T06:14:32;2.40;;;1.60;;
66402;SDS011;53212;52.112;5.144;2023-08-17T06:16:58;3.00;;;1.80;;
66402;SDS011;53212;52.112;5.144;2023-08-17T06:19:23;4.50;;;1.90;;
66402;SDS011;53212;52.112;5.144;2023-08-17T06:21:49;4.60;;;1.50;;
66402;SDS011;53212;52.112;5.144;2023-08-17T06:24:14;4.30;;;1.40;;
66402;SDS011;53212;52.112;5.144;2023-08-17T06:26:40;3.50;;;1.60;;
66402;SDS011;53212;52.112;5.144;2023-08-17T06:29:06;3.00;;;1.60;;
66402;SDS011;53212;52.112;5.144;2023-08-17T06:31:32;2.90;;;1.70;;
66402;SDS011;53212;52.112;5.144;2023-08-17T06:33:58;4.90;;;1.90;;
66402;SDS011;53212;52.112;5.144;2023-08-17T06:36:24;5.50;;;1.80;;
66402;SDS011;53212;52.112;5.144;2023-08-17T06:38:49;5.50;;;1.70;;
66402;SDS011;53212;52.112;5.144;2023-08-17T06:41:16;7.20;;;2.50;;
66402;SDS011;53212;52.112;5.144;2023-08-17T06:43:42;5.10;;;1.70;;
66402;SDS011;53212;52.112;5.144;2023-08-17T06:46:07;3.00;;;1.90;;
66402;SDS011;53212;52.112;5.144;2023-08-17T06:48:33;7.10;;;1.80;;
66402;SDS011;53212;52.112;5.144;2023-08-17T06:50:58;6.20;;;2.30;;
66402;SDS011;53212;52.112;5.144;2023-08-17T06:53:24;3.50;;;1.90;;
66402;SDS011;53212;52.112;5.144;2023-08-17T06:55:49;5.80;;;1.90;;
66402;SDS011;53212;52.112;5.144;2023-08-17T06:58:15;4.50;;;1.90;;
66402;SDS011;53212;52.112;5.144;2023-08-17T07:00:40;8.10;;;1.90;;
66402;SDS011;53212;52.112;5.144;2023-08-17T07:03:06;4.60;;;2.00;;
66402;SDS011;53212;52.112;5.144;2023-08-17T07:05:32;3.70;;;1.90;;
66402;SDS011;53212;52.112;5.144;2023-08-17T07:07:57;3.00;;;1.80;;
66402;SDS011;53212;52.112;5.144;2023-08-17T07:10:25;4.00;;;1.90;;
66402;SDS011;53212;52.112;5.144;2023-08-17T07:12:50;7.30;;;2.20;;
66402;SDS011;53212;52.112;5.144;2023-08-17T07:15:16;2.20;;;1.90;;
66402;SDS011;53212;52.112;5.144;2023-08-17T07:17:41;5.70;;;1.90;;
66402;SDS011;53212;52.112;5.144;2023-08-17T07:20:07;3.90;;;2.00;;
66402;SDS011;53212;52.112;5.144;2023-08-17T07:22:34;6.60;;;1.90;;
66402;SDS011;53212;52.112;5.144;2023-08-17T07:25:00;6.00;;;2.50;;
66402;SDS011;53212;52.112;5.144;2023-08-17T07:27:25;6.90;;;2.10;;
66402;SDS011;53212;52.112;5.144;2023-08-17T07:29:51;3.50;;;2.00;;
66402;SDS011;53212;52.112;5.144;2023-08-17T07:32:18;3.30;;;2.00;;
66402;SDS011;53212;52.112;5.144;2023-08-17T07:34:44;4.10;;;1.90;;
66402;SDS011;53212;52.112;5.144;2023-08-17T07:37:09;3.50;;;1.80;;
66402;SDS011;53212;52.112;5.144;2023-08-17T07:39:35;3.10;;;1.90;;
66402;SDS011;53212;52.112;5.144;2023-08-17T07:42:00;2.10;;;1.60;;
66402;SDS011;53212;52.112;5.144;2023-08-17T07:44:26;6.50;;;2.10;;
66402;SDS011;53212;52.112;5.144;2023-08-17T07:46:53;4.40;;;1.90;;
66402;SDS011;53212;52.112;5.144;2023-08-17T07:49:18;3.90;;;2.00;;
66402;SDS011;53212;52.112;5.144;2023-08-17T07:51:45;4.80;;;1.60;;
66402;SDS011;53212;52.112;5.144;2023-08-17T07:54:11;3.70;;;1.60;;
66402;SDS011;53212;52.112;5.144;2023-08-17T07:56:36;4.20;;;1.90;;
66402;SDS011;53212;52.112;5.144;2023-08-17T07:59:02;4.40;;;1.90;;
66402;SDS011;53212;52.112;5.144;2023-08-17T08:01:28;4.10;;;1.70;;
66402;SDS011;53212;52.112;5.144;2023-08-17T08:03:53;3.40;;;1.70;;
66402;SDS011;53212;52.112;5.144;2023-08-17T08:06:19;6.10;;;1.70;;
66402;SDS011;53212;52.112;5.144;2023-08-17T08:08:45;6.70;;;2.00;;
66402;SDS011;53212;52.112;5.144;2023-08-17T08:11:11;8.20;;;1.70;;
66402;SDS011;53212;52.112;5.144;2023-08-17T08:13:37;4.60;;;1.90;;
66402;SDS011;53212;52.112;5.144;2023-08-17T08:16:02;5.10;;;1.80;;
66402;SDS011;53212;52.112;5.144;2023-08-17T08:18:28;3.50;;;1.60;;
66402;SDS011;53212;52.112;5.144;2023-08-17T08:20:54;4.70;;;1.60;;
66402;SDS011;53212;52.112;5.144;2023-08-17T08:23:19;3.50;;;2.00;;
66402;SDS011;53212;52.112;5.144;2023-08-17T08:25:45;3.80;;;2.00;;
66402;SDS011;53212;52.112;5.144;2023-08-17T08:28:10;3.20;;;1.90;;
66402;SDS011;53212;52.112;5.144;2023-08-17T08:30:35;3.40;;;1.60;;
66402;SDS011;53212;52.112;5.144;2023-08-17T08:33:01;4.20;;;1.70;;
66402;SDS011;53212;52.112;5.144;2023-08-17T08:35:28;6.30;;;1.90;;
66402;SDS011;53212;52.112;5.144;2023-08-17T08:37:54;3.00;;;1.60;;
66402;SDS011;53212;52.112;5.144;2023-08-17T08:40:21;4.30;;;1.80;;
66402;SDS011;53212;52.112;5.144;2023-08-17T08:42:53;3.00;;;1.80;;
66402;SDS011;53212;52.112;5.144;2023-08-17T08:45:19;3.00;;;1.80;;
66402;SDS011;53212;52.112;5.144;2023-08-17T08:47:46;4.00;;;1.70;;
66402;SDS011;53212;52.112;5.144;2023-08-17T08:50:15;3.60;;;1.90;;
66402;SDS011;53212;52.112;5.144;2023-08-17T08:52:46;5.80;;;1.70;;
66402;SDS011;53212;52.112;5.144;2023-08-17T08:55:18;4.40;;;1.70;;
66402;SDS011;53212;52.112;5.144;2023-08-17T08:57:46;2.50;;;1.80;;
66402;SDS011;53212;52.112;5.144;2023-08-17T09:00:14;5.10;;;2.30;;
66402;SDS011;53212;52.112;5.144;2023-08-17T09:02:41;3.60;;;1.60;;
66402;SDS011;53212;52.112;5.144;2023-08-17T09:05:10;4.60;;;1.80;;
66402;SDS011;53212;52.112;5.144;2023-08-17T09:07:37;4.20;;;1.70;;
66402;SDS011;53212;52.112;5.144;2023-08-17T09:10:03;3.40;;;1.70;;
66402;SDS011;53212;52.112;5.144;2023-08-17T09:12:30;2.60;;;1.50;;
66402;SDS011;53212;52.112;5.144;2023-08-17T09:14:56;2.90;;;1.60;;
66402;SDS011;53212;52.112;5.144;2023-08-17T09:17:26;5.40;;;1.70;;
66402;SDS011;53212;52.112;5.144;2023-08-17T09:19:52;4.30;;;1.80;;
66402;SDS011;53212;52.112;5.144;2023-08-17T09:24:50;3.30;;;1.50;;
66402;SDS011;53212;52.112;5.144;2023-08-17T09:27:16;4.80;;;1.40;;
66402;SDS011;53212;52.112;5.144;2023-08-17T09:29:43;2.70;;;1.50;;
66402;SDS011;53212;52.112;5.144;2023-08-17T09:32:11;3.50;;;1.60;;
66402;SDS011;53212;52.112;5.144;2023-08-17T09:34:41;3.20;;;1.70;;
66402;SDS011;53212;52.112;5.144;2023-08-17T09:37:08;3.20;;;1.70;;
66402;SDS011;53212;52.112;5.144;2023-08-17T09:39:33;2.20;;;1.50;;
66402;SDS011;53212;52.112;5.144;2023-08-17T09:41:59;5.60;;;1.60;;
66402;SDS011;53212;52.112;5.144;2023-08-17T09:44:25;3.50;;;1.60;;
66402;SDS011;53212;52.112;5.144;2023-08-17T09:46:50;3.40;;;1.40;;
66402;SDS011;53212;52.112;5.144;2023-08-17T09:49:17;3.10;;;1.60;;
66402;SDS011;53212;52.112;5.144;2023-08-17T09:51:44;6.40;;;2.10;;
66402;SDS011;53212;52.112;5.144;2023-08-17T09:54:21;6.60;;;1.40;;
66402;SDS011;53212;52.112;5.144;2023-08-17T09:56:51;12.40;;;1.70;;
66402;SDS011;53212;52.112;5.144;2023-08-17T09:59:18;5.40;;;1.90;;
66402;SDS011;53212;52.112;5.144;2023-08-17T10:01:44;2.50;;;1.50;;
66402;SDS011;53212;52.112;5.144;2023-08-17T10:04:13;4.70;;;1.80;;
66402;SDS011;53212;52.112;5.144;2023-08-17T10:06:43;5.00;;;2.00;;
66402;SDS011;53212;52.112;5.144;2023-08-17T10:09:09;2.70;;;1.80;;
66402;SDS011;53212;52.112;5.144;2023-08-17T10:11:37;3.90;;;1.80;;
66402;SDS011;53212;52.112;5.144;2023-08-17T10:14:16;3.70;;;1.80;;
66402;SDS011;53212;52.112;5.144;2023-08-17T10:16:59;6.20;;;2.10;;
66402;SDS011;53212;52.112;5.144;2023-08-17T10:22:15;4.70;;;1.90;;
66402;SDS011;53212;52.112;5.144;2023-08-17T10:24:43;5.90;;;1.80;;
66402;SDS011;53212;52.112;5.144;2023-08-17T10:27:10;4.10;;;1.90;;
66402;SDS011;53212;52.112;5.144;2023-08-17T10:29:38;3.60;;;2.10;;
66402;SDS011;53212;52.112;5.144;2023-08-17T10:32:06;6.80;;;2.10;;
66402;SDS011;53212;52.112;5.144;2023-08-17T10:34:33;4.50;;;2.20;;
66402;SDS011;53212;52.112;5.144;2023-08-17T10:37:00;3.00;;;2.10;;
66402;SDS011;53212;52.112;5.144;2023-08-17T10:39:27;4.30;;;2.10;;
66402;SDS011;53212;52.112;5.144;2023-08-17T10:41:54;6.20;;;2.50;;
66402;SDS011;53212;52.112;5.144;2023-08-17T10:44:44;8.90;;;2.00;;
66402;SDS011;53212;52.112;5.144;2023-08-17T10:47:23;3.60;;;2.20;;
66402;SDS011;53212;52.112;5.144;2023-08-17T10:49:58;5.80;;;2.60;;
66402;SDS011;53212;52.112;5.144;2023-08-17T10:52:30;5.90;;;2.50;;
66402;SDS011;53212;52.112;5.144;2023-08-17T10:55:06;4.90;;;2.70;;
66402;SDS011;53212;52.112;5.144;2023-08-17T11:05:47;5.10;;;2.60;;
66402;SDS011;53212;52.112;5.144;2023-08-17T11:11:05;6.10;;;3.10;;
66402;SDS011;53212;52.112;5.144;2023-08-17T11:13:33;8.30;;;3.10;;
66402;SDS011;53212;52.112;5.144;2023-08-17T11:16:02;5.20;;;2.70;;
66402;SDS011;53212;52.112;5.144;2023-08-17T11:18:28;6.30;;;3.20;;
66402;SDS011;53212;52.112;5.144;2023-08-17T11:20:54;6.00;;;2.90;;
66402;SDS011;53212;52.112;5.144;2023-08-17T11:23:20;7.70;;;3.20;;
66402;SDS011;53212;52.112;5.144;2023-08-17T11:25:48;5.00;;;2.90;;
66402;SDS011;53212;52.112;5.144;2023-08-17T11:28:16;7.30;;;3.20;;
66402;SDS011;53212;52.112;5.144;2023-08-17T11:30:42;5.00;;;2.70;;
66402;SDS011;53212;52.112;5.144;2023-08-17T11:33:09;5.50;;;3.40;;
66402;SDS011;53212;52.112;5.144;2023-08-17T11:35:38;6.00;;;3.00;;
66402;SDS011;53212;52.112;5.144;2023-08-17T11:38:04;6.10;;;3.70;;
66402;SDS011;53212;52.112;5.144;2023-08-17T11:40:31;5.30;;;3.10;;
66402;SDS011;53212;52.112;5.144;2023-08-17T11:42:57;7.00;;;3.10;;
66402;SDS011;53212;52.112;5.144;2023-08-17T11:45:23;7.90;;;3.40;;
66402;SDS011;53212;52.112;5.144;2023-08-17T11:47:48;6.20;;;3.00;;
66402;SDS011;53212;52.112;5.144;2023-08-17T11:50:14;6.40;;;2.60;;
66402;SDS011;53212;52.112;5.144;2023-08-17T11:52:40;4.80;;;2.60;;
66402;SDS011;53212;52.112;5.144;2023-08-17T11:55:07;4.30;;;2.70;;
66402;SDS011;53212;52.112;5.144;2023-08-17T11:57:35;6.20;;;3.10;;
66402;SDS011;53212;52.112;5.144;2023-08-17T12:00:02;5.20;;;2.90;;
66402;SDS011;53212;52.112;5.144;2023-08-17T12:02:31;5.30;;;3.10;;
66402;SDS011;53212;52.112;5.144;2023-08-17T12:05:02;4.70;;;2.70;;
66402;SDS011;53212;52.112;5.144;2023-08-17T12:07:31;5.00;;;3.40;;
66402;SDS011;53212;52.112;5.144;2023-08-17T12:09:57;3.70;;;2.90;;
66402;SDS011;53212;52.112;5.144;2023-08-17T12:12:23;3.80;;;2.70;;
66402;SDS011;53212;52.112;5.144;2023-08-17T12:14:48;4.70;;;3.20;;
66402;SDS011;53212;52.112;5.144;2023-08-17T12:17:17;5.50;;;2.60;;
66402;SDS011;53212;52.112;5.144;2023-08-17T12:19:45;3.90;;;2.70;;
66402;SDS011;53212;52.112;5.144;2023-08-17T12:22:16;3.60;;;3.00;;
66402;SDS011;53212;52.112;5.144;2023-08-17T12:24:42;5.70;;;2.90;;
66402;SDS011;53212;52.112;5.144;2023-08-17T12:27:09;5.10;;;2.80;;
66402;SDS011;53212;52.112;5.144;2023-08-17T12:29:49;6.50;;;2.70;;
66402;SDS011;53212;52.112;5.144;2023-08-17T12:32:16;3.90;;;2.70;;
66402;SDS011;53212;52.112;5.144;2023-08-17T12:34:44;3.90;;;2.60;;
66402;SDS011;53212;52.112;5.144;2023-08-17T12:37:10;5.40;;;2.50;;
66402;SDS011;53212;52.112;5.144;2023-08-17T12:39:37;4.70;;;2.60;;
66402;SDS011;53212;52.112;5.144;2023-08-17T12:42:06;4.40;;;2.90;;
66402;SDS011;53212;52.112;5.144;2023-08-17T12:44:31;5.30;;;2.70;;
66402;SDS011;53212;52.112;5.144;2023-08-17T12:46:57;6.50;;;2.70;;
66402;SDS011;53212;52.112;5.144;2023-08-17T12:49:25;4.50;;;2.90;;
66402;SDS011;53212;52.112;5.144;2023-08-17T12:51:50;4.10;;;3.30;;
66402;SDS011;53212;52.112;5.144;2023-08-17T12:54:17;6.90;;;3.20;;
66402;SDS011;53212;52.112;5.144;2023-08-17T12:56:44;3.80;;;2.70;;
66402;SDS011;53212;52.112;5.144;2023-08-17T12:59:10;4.30;;;2.90;;
66402;SDS011;53212;52.112;5.144;2023-08-17T13:01:36;4.90;;;2.70;;
66402;SDS011;53212;52.112;5.144;2023-08-17T13:04:01;4.30;;;3.00;;
66402;SDS011;53212;52.112;5.144;2023-08-17T13:06:27;4.40;;;3.10;;
66402;SDS011;53212;52.112;5.144;2023-08-17T13:08:54;5.20;;;2.50;;
66402;SDS011;53212;52.112;5.144;2023-08-17T13:11:19;5.00;;;2.90;;
66402;SDS011;53212;52.112;5.144;2023-08-17T13:13:45;4.70;;;2.70;;
66402;SDS011;53212;52.112;5.144;2023-08-17T13:16:11;6.10;;;3.20;;
66402;SDS011;53212;52.112;5.144;2023-08-17T13:18:37;6.00;;;3.10;;
66402;SDS011;53212;52.112;5.144;2023-08-17T13:21:03;4.80;;;3.10;;
66402;SDS011;53212;52.112;5.144;2023-08-17T13:23:28;5.90;;;3.30;;
66402;SDS011;53212;52.112;5.144;2023-08-17T13:25:54;7.90;;;2.90;;
66402;SDS011;53212;52.112;5.144;2023-08-17T13:28:20;4.20;;;2.70;;
66402;SDS011;53212;52.112;5.144;2023-08-17T13:30:45;4.90;;;2.90;;
66402;SDS011;53212;52.112;5.144;2023-08-17T13:33:12;6.50;;;3.50;;
66402;SDS011;53212;52.112;5.144;2023-08-17T13:35:38;5.10;;;3.20;;
66402;SDS011;53212;52.112;5.144;2023-08-17T13:38:04;4.60;;;3.00;;
66402;SDS011;53212;52.112;5.144;2023-08-17T13:40:33;7.20;;;3.00;;
66402;SDS011;53212;52.112;5.144;2023-08-17T13:42:59;4.00;;;2.70;;
66402;SDS011;53212;52.112;5.144;2023-08-17T13:45:25;4.50;;;2.90;;
66402;SDS011;53212;52.112;5.144;2023-08-17T13:47:51;7.50;;;2.50;;
66402;SDS011;53212;52.112;5.144;2023-08-17T13:50:17;5.40;;;3.00;;
66402;SDS011;53212;52.112;5.144;2023-08-17T13:52:44;5.10;;;2.80;;
66402;SDS011;53212;52.112;5.144;2023-08-17T13:55:10;3.90;;;2.80;;
66402;SDS011;53212;52.112;5.144;2023-08-17T13:57:36;3.60;;;2.50;;
66402;SDS011;53212;52.112;5.144;2023-08-17T14:00:02;6.20;;;2.70;;
66402;SDS011;53212;52.112;5.144;2023-08-17T14:02:29;5.30;;;2.70;;
66402;SDS011;53212;52.112;5.144;2023-08-17T14:04:55;3.80;;;2.60;;
66402;SDS011;53212;52.112;5.144;2023-08-17T14:07:21;5.00;;;3.00;;
66402;SDS011;53212;52.112;5.144;2023-08-17T14:09:46;5.20;;;2.50;;
66402;SDS011;53212;52.112;5.144;2023-08-17T14:12:12;7.10;;;2.80;;
66402;SDS011;53212;52.112;5.144;2023-08-17T14:14:37;5.60;;;3.10;;
66402;SDS011;53212;52.112;5.144;2023-08-17T14:17:03;3.20;;;2.70;;
66402;SDS011;53212;52.112;5.144;2023-08-17T14:19:29;4.30;;;2.60;;
66402;SDS011;53212;52.112;5.144;2023-08-17T14:21:56;4.20;;;2.90;;
66402;SDS011;53212;52.112;5.144;2023-08-17T14:24:21;4.90;;;2.50;;
66402;SDS011;53212;52.112;5.144;2023-08-17T14:26:47;3.40;;;2.50;;
66402;SDS011;53212;52.112;5.144;2023-08-17T14:29:12;4.60;;;2.60;;
66402;SDS011;53212;52.112;5.144;2023-08-17T14:31:38;5.00;;;2.70;;
66402;SDS011;53212;52.112;5.144;2023-08-17T14:34:04;4.60;;;2.30;;
66402;SDS011;53212;52.112;5.144;2023-08-17T14:36:29;5.20;;;2.20;;
66402;SDS011;53212;52.112;5.144;2023-08-17T14:38:54;3.80;;;2.30;;
66402;SDS011;53212;52.112;5.144;2023-08-17T14:41:20;3.70;;;2.40;;
66402;SDS011;53212;52.112;5.144;2023-08-17T14:43:45;5.60;;;2.30;;
66402;SDS011;53212;52.112;5.144;2023-08-17T14:46:11;4.30;;;2.50;;
66402;SDS011;53212;52.112;5.144;2023-08-17T14:48:36;3.00;;;2.50;;
66402;SDS011;53212;52.112;5.144;2023-08-17T14:51:02;4.50;;;2.70;;
66402;SDS011;53212;52.112;5.144;2023-08-17T14:53:28;2.70;;;2.10;;
66402;SDS011;53212;52.112;5.144;2023-08-17T14:55:54;3.00;;;2.70;;
66402;SDS011;53212;52.112;5.144;2023-08-17T14:58:20;6.20;;;2.50;;
66402;SDS011;53212;52.112;5.144;2023-08-17T15:00:46;3.20;;;2.40;;
66402;SDS011;53212;52.112;5.144;2023-08-17T15:03:12;4.20;;;2.40;;